createdAt,value
2019-03-12T00:00:26.893Z,88.72
2019-03-12T00:02:34.477Z,89.41
2019-03-12T00:04:42.105Z,89.06
2019-03-12T00:06:49.682Z,89.34
2019-03-12T00:08:57.262Z,89.98
2019-03-12T00:11:05.009Z,89.69
2019-03-12T00:13:12.582Z,89.32
2019-03-12T00:15:20.277Z,89.42
2019-03-12T00:17:27.941Z,90.09
2019-03-12T00:19:35.525Z,90.08
2019-03-12T00:21:43.210Z,90.48
2019-03-12T00:23:51.002Z,90.68
2019-03-12T00:25:58.645Z,90.51
2019-03-12T00:28:06.284Z,91.08
2019-03-12T00:30:14.343Z,90.83
2019-03-12T00:32:22.000Z,91.36
2019-03-12T00:34:29.814Z,90.99
2019-03-12T00:36:37.429Z,90.95
2019-03-12T00:38:46.657Z,90.96
2019-03-12T00:40:54.244Z,90.94
2019-03-12T00:43:01.894Z,91.35
2019-03-12T00:45:12.224Z,90.87
2019-03-12T00:47:19.803Z,91.02
2019-03-12T00:49:27.426Z,90.80
2019-03-12T00:51:35.116Z,90.79
2019-03-12T00:53:42.697Z,91.08
2019-03-12T00:55:50.305Z,90.79
2019-03-12T00:57:57.949Z,90.81
2019-03-12T01:00:19.948Z,91.00
2019-03-12T01:02:27.658Z,90.95
2019-03-12T01:04:36.279Z,91.32
2019-03-12T01:06:43.932Z,91.33
2019-03-12T01:08:51.611Z,91.36
2019-03-12T01:10:59.184Z,91.32
2019-03-12T01:13:17.033Z,91.34
2019-03-12T01:15:26.067Z,91.28
2019-03-12T01:17:33.749Z,91.30
2019-03-12T01:19:41.327Z,91.76
2019-03-12T01:21:48.947Z,91.53
2019-03-12T01:23:56.963Z,91.64
2019-03-12T01:26:04.614Z,91.75
2019-03-12T01:28:12.223Z,91.58
2019-03-12T01:30:20.287Z,91.66
2019-03-12T01:32:27.869Z,91.86
2019-03-12T01:34:35.482Z,91.36
2019-03-12T01:36:43.206Z,91.69
2019-03-12T01:38:50.857Z,91.15
2019-03-12T01:40:58.536Z,91.25
2019-03-12T01:43:06.564Z,91.44
2019-03-12T01:45:15.432Z,91.60
2019-03-12T01:47:23.045Z,91.10
2019-03-12T01:49:30.896Z,90.73
2019-03-12T01:51:38.484Z,90.67
2019-03-12T01:53:45.984Z,90.82
2019-03-12T01:55:53.645Z,90.87
2019-03-12T01:58:01.217Z,91.06
2019-03-12T02:00:13.850Z,90.73
2019-03-12T02:02:21.415Z,90.69
2019-03-12T02:04:29.149Z,90.90
2019-03-12T02:06:36.816Z,90.75
2019-03-12T02:08:45.353Z,90.75
2019-03-12T02:10:52.990Z,90.65
2019-03-12T02:13:00.481Z,90.63
2019-03-12T02:15:16.826Z,90.48
2019-03-12T02:17:24.418Z,90.62
2019-03-12T02:19:32.002Z,90.71
2019-03-12T02:21:39.651Z,90.53
2019-03-12T02:23:47.392Z,90.43
2019-03-12T02:25:55.137Z,90.86
2019-03-12T02:28:02.711Z,91.34
2019-03-12T02:30:17.751Z,91.25
2019-03-12T02:32:25.434Z,91.42
2019-03-12T02:34:32.996Z,91.37
2019-03-12T02:36:40.668Z,91.20
2019-03-12T02:38:48.479Z,91.31
2019-03-12T02:40:57.352Z,91.39
2019-03-12T02:43:05.196Z,91.18
2019-03-12T02:45:17.137Z,91.00
2019-03-12T02:47:24.831Z,90.84
2019-03-12T02:49:32.477Z,90.84
2019-03-12T02:51:40.167Z,90.98
2019-03-12T02:53:47.727Z,90.89
2019-03-12T02:55:55.376Z,90.68
2019-03-12T02:58:03.069Z,90.27
2019-03-12T03:00:19.397Z,90.62
2019-03-12T03:02:26.966Z,90.25
2019-03-12T03:04:34.477Z,90.17
2019-03-12T03:06:43.668Z,90.36
2019-03-12T03:08:51.330Z,90.26
2019-03-12T03:10:58.957Z,90.38
2019-03-12T03:13:08.115Z,90.40
2019-03-12T03:15:25.903Z,90.21
2019-03-12T03:17:33.501Z,90.12
2019-03-12T03:19:41.077Z,89.85
2019-03-12T03:21:48.747Z,89.87
2019-03-12T03:23:56.339Z,89.97
2019-03-12T03:26:04.014Z,89.45
2019-03-12T03:28:11.693Z,89.77
2019-03-12T03:30:24.657Z,89.93
2019-03-12T03:32:32.296Z,89.91
2019-03-12T03:34:39.772Z,90.17
2019-03-12T03:36:47.566Z,90.28
2019-03-12T03:38:55.369Z,90.11
2019-03-12T03:41:03.616Z,89.81
2019-03-12T03:43:11.289Z,89.94
2019-03-12T03:45:19.490Z,90.38
2019-03-12T03:47:27.058Z,90.14
2019-03-12T03:49:34.663Z,89.97
2019-03-12T03:51:42.339Z,89.63
2019-03-12T03:53:51.201Z,89.88
2019-03-12T03:55:58.798Z,89.86
2019-03-12T03:58:06.480Z,89.63
2019-03-12T04:00:24.636Z,89.26
2019-03-12T04:02:32.225Z,89.80
2019-03-12T04:04:39.799Z,89.38
2019-03-12T04:06:48.588Z,89.89
2019-03-12T04:08:56.190Z,89.40
2019-03-12T04:11:03.856Z,88.66
2019-03-12T04:13:12.806Z,89.00
2019-03-12T04:15:20.826Z,88.81
2019-03-12T04:17:28.489Z,89.15
2019-03-12T04:19:36.161Z,87.89
2019-03-12T04:21:43.769Z,87.81
2019-03-12T04:23:51.338Z,88.00
2019-03-12T04:25:59.064Z,87.88
2019-03-12T04:28:06.653Z,87.32
2019-03-12T04:30:19.713Z,87.20
2019-03-12T04:32:27.269Z,87.63
2019-03-12T04:34:35.091Z,87.18
2019-03-12T04:36:42.746Z,87.62
2019-03-12T04:38:50.784Z,87.71
2019-03-12T04:40:58.481Z,87.12
2019-03-12T04:43:06.186Z,87.20
2019-03-12T04:45:16.645Z,87.21
2019-03-12T04:47:25.219Z,86.91
2019-03-12T04:49:32.868Z,87.35
2019-03-12T04:51:40.803Z,88.02
2019-03-12T04:53:49.532Z,87.83
2019-03-12T04:55:57.146Z,87.69
2019-03-12T04:58:04.721Z,87.77
2019-03-12T05:00:20.684Z,87.79
2019-03-12T05:02:28.359Z,87.43
2019-03-12T05:04:35.930Z,87.16
2019-03-12T05:06:43.527Z,87.04
2019-03-12T05:08:51.097Z,86.50
2019-03-12T05:10:58.772Z,86.16
2019-03-12T05:13:06.463Z,86.57
2019-03-12T05:15:19.575Z,86.26
2019-03-12T05:17:27.214Z,86.22
2019-03-12T05:19:34.929Z,86.30
2019-03-12T05:21:44.874Z,85.10
2019-03-12T05:23:51.770Z,86.23
2019-03-12T05:25:59.384Z,86.81
2019-03-12T05:28:07.121Z,85.43
2019-03-12T05:30:19.496Z,85.51
2019-03-12T05:32:27.139Z,84.49
2019-03-12T05:34:34.777Z,83.26
2019-03-12T05:36:42.368Z,82.91
2019-03-12T05:38:50.156Z,83.69
2019-03-12T05:40:57.718Z,83.09
2019-03-12T05:43:05.456Z,83.58
2019-03-12T05:45:19.672Z,84.22
2019-03-12T05:47:27.395Z,82.92
2019-03-12T05:49:34.959Z,83.58
2019-03-12T05:51:42.544Z,83.63
2019-03-12T05:53:52.218Z,83.89
2019-03-12T05:55:59.782Z,83.75
2019-03-12T05:58:07.465Z,83.62
2019-03-12T06:00:21.985Z,83.69
2019-03-12T06:02:29.551Z,83.89
2019-03-12T06:04:38.224Z,83.84
2019-03-12T06:06:45.904Z,82.87
2019-03-12T06:08:53.472Z,83.89
2019-03-12T06:11:01.261Z,84.07
2019-03-12T06:13:08.943Z,83.78
2019-03-12T06:15:17.509Z,83.80
2019-03-12T06:17:25.331Z,83.89
2019-03-12T06:19:34.166Z,83.50
2019-03-12T06:21:41.814Z,83.08
2019-03-12T06:23:50.443Z,83.66
2019-03-12T06:25:58.022Z,83.55
2019-03-12T06:28:05.647Z,83.02
2019-03-12T06:30:21.415Z,83.13
2019-03-12T06:32:36.657Z,82.72
2019-03-12T06:34:45.798Z,81.86
2019-03-12T06:36:57.796Z,82.28
2019-03-12T06:39:12.279Z,80.25
2019-03-12T06:41:31.463Z,81.00
2019-03-12T06:43:46.436Z,79.10
2019-03-12T06:46:01.685Z,80.50
2019-03-12T06:48:27.350Z,80.63
2019-03-12T06:50:41.451Z,80.92
2019-03-12T06:53:06.969Z,80.98
2019-03-12T06:55:32.582Z,81.01
2019-03-12T06:57:58.485Z,81.84
2019-03-12T07:00:12.729Z,81.76
2019-03-12T07:02:21.941Z,81.26
2019-03-12T07:04:46.460Z,81.87
2019-03-12T07:07:11.560Z,81.61
2019-03-12T07:09:19.767Z,81.64
2019-03-12T07:11:37.637Z,81.32
2019-03-12T07:13:46.952Z,81.56
2019-03-12T07:16:05.324Z,80.90
2019-03-12T07:18:16.157Z,78.58
2019-03-12T07:20:29.482Z,79.10
2019-03-12T07:22:57.053Z,79.00
2019-03-12T07:25:12.114Z,78.92
2019-03-12T07:27:21.485Z,78.97
2019-03-12T07:29:42.000Z,77.95
2019-03-12T07:31:51.314Z,75.49
2019-03-12T07:34:09.448Z,75.70
2019-03-12T07:36:25.454Z,77.35
2019-03-12T07:38:37.473Z,76.97
2019-03-12T07:41:02.994Z,77.30
2019-03-12T07:43:15.304Z,78.14
2019-03-12T07:45:27.180Z,77.87
2019-03-12T07:47:42.422Z,77.73
2019-03-12T07:49:54.368Z,77.10
2019-03-12T07:52:04.757Z,77.80
2019-03-12T07:54:17.893Z,77.87
2019-03-12T07:56:27.897Z,76.47
2019-03-12T07:58:55.595Z,73.49
2019-03-12T08:01:06.272Z,74.44
2019-03-12T08:03:25.595Z,74.31
2019-03-12T08:05:49.794Z,72.02
2019-03-12T08:08:04.830Z,74.08
2019-03-12T08:10:14.181Z,73.98
2019-03-12T08:12:25.011Z,73.59
2019-03-12T08:14:36.830Z,71.91
2019-03-12T08:17:02.186Z,71.35
2019-03-12T08:19:14.365Z,71.70
2019-03-12T08:21:26.223Z,72.63
2019-03-12T08:23:41.310Z,72.79
2019-03-12T08:25:59.279Z,73.94
2019-03-12T08:28:10.995Z,73.77
2019-03-12T08:30:22.961Z,71.04
2019-03-12T08:32:48.442Z,71.93
2019-03-12T08:35:13.168Z,73.22
2019-03-12T08:37:22.547Z,73.75
2019-03-12T08:39:48.071Z,71.75
2019-03-12T08:41:57.382Z,73.58
2019-03-12T08:44:26.161Z,71.77
2019-03-12T08:46:43.013Z,71.79
2019-03-12T08:48:52.528Z,72.31
2019-03-12T08:51:05.005Z,71.31
2019-03-12T08:53:19.117Z,67.90
2019-03-12T08:55:28.502Z,70.82
2019-03-12T08:57:47.231Z,69.68
2019-03-12T08:59:57.067Z,72.21
2019-03-12T09:02:21.561Z,72.25
2019-03-12T09:04:30.768Z,70.42
2019-03-12T09:06:43.854Z,71.76
2019-03-12T09:09:09.866Z,70.00
2019-03-12T09:11:37.184Z,72.14
2019-03-12T09:13:53.462Z,69.99
2019-03-12T09:16:12.571Z,71.71
2019-03-12T09:18:28.787Z,72.95
2019-03-12T09:20:38.982Z,73.19
2019-03-12T09:23:04.346Z,71.18
2019-03-12T09:25:18.285Z,69.53
2019-03-12T09:27:48.568Z,70.55
2019-03-12T09:29:59.165Z,69.96
2019-03-12T09:32:24.792Z,69.92
2019-03-12T09:34:36.653Z,65.79
2019-03-12T09:37:02.972Z,67.60
2019-03-12T09:39:28.949Z,64.98
2019-03-12T09:41:38.298Z,67.16
2019-03-12T09:43:48.928Z,62.49
2019-03-12T09:46:03.943Z,66.31
2019-03-12T09:48:18.806Z,62.79
2019-03-12T09:50:28.191Z,66.70
2019-03-12T09:52:53.324Z,62.86
2019-03-12T09:55:06.671Z,62.35
2019-03-12T09:57:28.266Z,64.13
2019-03-12T09:59:35.600Z,64.12
2019-03-12T10:02:01.134Z,60.43
2019-03-12T10:04:26.508Z,58.52
2019-03-12T10:06:43.334Z,58.79
2019-03-12T10:08:58.014Z,61.29
2019-03-12T10:11:07.449Z,61.72
2019-03-12T10:13:18.108Z,60.79
2019-03-12T10:15:28.679Z,60.87
2019-03-12T10:17:48.173Z,59.51
2019-03-12T10:19:57.370Z,63.82
2019-03-12T10:22:04.805Z,58.97
2019-03-12T10:24:14.018Z,58.87
2019-03-12T10:26:28.996Z,57.57
2019-03-12T10:28:45.515Z,54.42
2019-03-12T10:31:11.082Z,57.07
2019-03-12T10:33:18.454Z,58.85
2019-03-12T10:35:27.878Z,59.89
2019-03-12T10:37:55.256Z,57.54
2019-03-12T10:40:16.459Z,56.77
2019-03-12T10:42:28.738Z,55.61
2019-03-12T10:44:38.033Z,55.20
2019-03-12T10:46:53.231Z,58.83
2019-03-12T10:49:01.059Z,56.75
2019-03-12T10:51:08.753Z,56.74
2019-03-12T10:53:17.245Z,59.07
2019-03-12T10:55:25.093Z,57.40
2019-03-12T10:57:32.859Z,55.56
2019-03-12T10:59:40.513Z,55.84
2019-03-12T11:01:49.171Z,56.19
2019-03-12T11:03:56.803Z,55.71
2019-03-12T11:06:04.683Z,55.66
2019-03-12T11:08:12.349Z,57.59
2019-03-12T11:10:20.651Z,57.07
2019-03-12T11:12:29.385Z,54.11
2019-03-12T11:14:37.170Z,53.33
2019-03-12T11:16:44.842Z,53.05
2019-03-12T11:18:53.774Z,53.34
2019-03-12T11:21:01.425Z,54.77
2019-03-12T11:23:10.085Z,57.25
2019-03-12T11:25:27.150Z,53.75
2019-03-12T11:27:28.461Z,58.50
2019-03-12T11:29:36.214Z,55.81
2019-03-12T11:31:43.971Z,56.00
2019-03-12T11:33:51.626Z,53.84
2019-03-12T11:35:59.358Z,53.30
2019-03-12T11:38:07.181Z,52.98
2019-03-12T11:40:23.835Z,53.22
2019-03-12T11:42:31.474Z,52.74
2019-03-12T11:44:39.478Z,51.89
2019-03-12T11:46:47.356Z,51.14
2019-03-12T11:48:54.953Z,51.55
2019-03-12T11:51:02.642Z,51.24
2019-03-12T11:53:10.546Z,53.01
2019-03-12T11:55:18.561Z,54.98
2019-03-12T11:57:26.288Z,53.45
2019-03-12T11:59:33.989Z,53.56
2019-03-12T12:01:41.533Z,55.70
2019-03-12T12:03:49.202Z,54.70
2019-03-12T12:05:56.934Z,52.92
2019-03-12T12:08:04.649Z,53.86
2019-03-12T12:10:18.385Z,53.30
2019-03-12T12:12:26.037Z,53.95
2019-03-12T12:14:33.693Z,51.94
2019-03-12T12:16:41.325Z,52.81
2019-03-12T12:18:48.903Z,55.10
2019-03-12T12:20:56.547Z,54.12
2019-03-12T12:23:04.246Z,54.11
2019-03-12T12:25:20.193Z,54.22
2019-03-12T12:27:27.746Z,53.32
2019-03-12T12:29:35.414Z,54.81
2019-03-12T12:31:43.007Z,53.78
2019-03-12T12:33:50.669Z,53.32
2019-03-12T12:35:58.343Z,55.37
2019-03-12T12:38:06.169Z,56.46
2019-03-12T12:40:17.505Z,54.23
2019-03-12T12:42:25.140Z,54.20
2019-03-12T12:44:32.957Z,56.26
2019-03-12T12:46:40.521Z,54.48
2019-03-12T12:48:49.146Z,53.82
2019-03-12T12:51:03.000Z,53.02
2019-03-12T12:53:07.245Z,54.22
2019-03-12T12:55:16.015Z,51.91
2019-03-12T12:57:24.218Z,52.09
2019-03-12T12:59:31.882Z,51.98
2019-03-12T13:01:39.441Z,53.10
2019-03-12T13:03:47.119Z,54.06
2019-03-12T13:05:55.790Z,54.95
2019-03-12T13:08:05.167Z,55.34
2019-03-12T13:10:20.410Z,55.32
2019-03-12T13:12:28.064Z,55.27
2019-03-12T13:14:41.368Z,54.72
2019-03-12T13:16:45.189Z,55.16
2019-03-12T13:18:53.044Z,53.48
2019-03-12T13:21:00.712Z,54.71
2019-03-12T13:23:09.548Z,55.00
2019-03-12T13:25:18.911Z,54.95
2019-03-12T13:27:26.840Z,55.39
2019-03-12T13:29:34.419Z,54.74
2019-03-12T13:31:42.150Z,55.48
2019-03-12T13:33:50.059Z,53.70
2019-03-12T13:35:57.706Z,54.70
2019-03-12T13:38:05.341Z,54.29
2019-03-12T13:40:19.366Z,52.44
2019-03-12T13:42:27.065Z,54.05
2019-03-12T13:44:35.020Z,53.56
2019-03-12T13:46:42.757Z,55.34
2019-03-12T13:48:50.496Z,53.94
2019-03-12T13:50:58.442Z,56.33
2019-03-12T13:53:06.221Z,56.22
2019-03-12T13:55:16.118Z,53.84
2019-03-12T13:57:24.633Z,54.51
2019-03-12T13:59:32.295Z,54.15
2019-03-12T14:01:39.903Z,55.63
2019-03-12T14:03:47.643Z,55.92
2019-03-12T14:05:55.312Z,56.17
2019-03-12T14:08:02.994Z,58.62
2019-03-12T14:10:19.714Z,60.24
2019-03-12T14:12:27.377Z,57.68
2019-03-12T14:14:34.964Z,59.27
2019-03-12T14:16:42.519Z,58.85
2019-03-12T14:18:50.151Z,58.15
2019-03-12T14:21:08.804Z,58.92
2019-03-12T14:23:29.229Z,58.69
2019-03-12T14:25:37.925Z,58.98
2019-03-12T14:27:45.559Z,58.88
2019-03-12T14:29:54.157Z,58.87
2019-03-12T14:32:02.812Z,57.93
2019-03-12T14:34:10.541Z,56.79
2019-03-12T14:36:18.336Z,56.48
2019-03-12T14:38:26.132Z,56.11
2019-03-12T14:40:33.789Z,55.73
2019-03-12T14:42:41.418Z,57.21
2019-03-12T14:44:48.986Z,56.72
2019-03-12T14:46:56.654Z,55.93
2019-03-12T14:49:04.364Z,55.72
2019-03-12T14:51:36.244Z,56.54
2019-03-12T14:53:47.991Z,55.98
2019-03-12T14:55:55.526Z,57.32
2019-03-12T14:58:04.302Z,57.94
2019-03-12T15:00:21.247Z,56.77
2019-03-12T15:02:31.583Z,57.53
2019-03-12T15:04:39.218Z,58.09
2019-03-12T15:06:46.982Z,58.27
2019-03-12T15:08:54.818Z,59.46
2019-03-12T15:11:02.442Z,58.90
2019-03-12T15:13:10.040Z,59.16
2019-03-12T15:15:17.671Z,59.38
2019-03-12T15:17:25.385Z,60.10
2019-03-12T15:19:32.967Z,60.88
2019-03-12T15:21:40.600Z,60.98
2019-03-12T15:23:48.304Z,61.18
2019-03-12T15:25:55.894Z,61.33
2019-03-12T15:28:03.463Z,61.75
2019-03-12T15:30:24.258Z,62.67
2019-03-12T15:32:31.953Z,62.29
2019-03-12T15:34:39.594Z,62.01
2019-03-12T15:36:47.166Z,62.23
2019-03-12T15:38:54.869Z,62.76
2019-03-12T15:41:02.434Z,62.17
2019-03-12T15:43:10.074Z,62.76
2019-03-12T15:45:18.814Z,62.94
2019-03-12T15:47:26.480Z,62.55
2019-03-12T15:49:34.082Z,63.19
2019-03-12T15:51:41.770Z,63.64
2019-03-12T15:53:49.349Z,63.85
2019-03-12T15:55:57.051Z,64.01
2019-03-12T15:58:05.299Z,63.76
2019-03-12T16:00:19.467Z,64.14
2019-03-12T16:02:27.143Z,64.33
2019-03-12T16:04:34.913Z,65.41
2019-03-12T16:06:42.587Z,64.76
2019-03-12T16:08:50.169Z,64.99
2019-03-12T16:10:58.715Z,66.47
2019-03-12T16:13:07.870Z,68.37
2019-03-12T16:15:19.538Z,71.87
2019-03-12T16:17:29.662Z,73.53
2019-03-12T16:19:36.630Z,74.83
2019-03-12T16:21:44.261Z,76.11
2019-03-12T16:23:52.852Z,76.27
2019-03-12T16:26:03.040Z,76.40
2019-03-12T16:28:10.615Z,76.71
2019-03-12T16:30:21.420Z,76.77
2019-03-12T16:32:28.993Z,76.85
2019-03-12T16:34:36.715Z,76.76
2019-03-12T16:36:44.472Z,76.77
2019-03-12T16:38:52.323Z,76.64
2019-03-12T16:40:59.896Z,76.98
2019-03-12T16:43:07.499Z,77.22
2019-03-12T16:45:20.029Z,77.77
2019-03-12T16:47:27.653Z,77.83
2019-03-12T16:49:35.248Z,77.64
2019-03-12T16:51:42.819Z,77.03
2019-03-12T16:53:51.685Z,77.60
2019-03-12T16:55:59.404Z,78.08
2019-03-12T16:58:07.556Z,78.21
2019-03-12T17:00:20.100Z,78.23
2019-03-12T17:02:27.704Z,78.54
2019-03-12T17:04:35.453Z,78.50
2019-03-12T17:06:43.078Z,77.82
2019-03-12T17:08:50.682Z,78.60
2019-03-12T17:11:02.418Z,78.90
2019-03-12T17:13:07.587Z,79.12
2019-03-12T17:15:25.100Z,79.31
2019-03-12T17:17:32.748Z,79.26
2019-03-12T17:19:40.396Z,79.11
2019-03-12T17:21:48.092Z,79.76
2019-03-12T17:23:55.846Z,79.87
2019-03-12T17:26:03.424Z,79.70
2019-03-12T17:28:11.343Z,79.16
2019-03-12T17:30:22.513Z,78.85
2019-03-12T17:32:30.084Z,79.14
2019-03-12T17:34:39.291Z,79.12
2019-03-12T17:36:47.934Z,78.89
2019-03-12T17:38:55.607Z,79.14
2019-03-12T17:41:03.306Z,79.59
2019-03-12T17:43:10.956Z,79.90
2019-03-12T17:45:18.668Z,79.34
2019-03-12T17:47:26.357Z,79.85
2019-03-12T17:49:34.029Z,79.79
2019-03-12T17:51:41.614Z,80.35
2019-03-12T17:53:49.603Z,80.46
2019-03-12T17:55:57.264Z,80.50
2019-03-12T17:58:06.067Z,80.35
2019-03-12T18:00:22.801Z,79.68
2019-03-12T18:02:41.856Z,79.68
2019-03-12T18:04:40.058Z,79.18
2019-03-12T18:06:50.800Z,79.54
2019-03-12T18:08:58.586Z,79.74
2019-03-12T18:11:06.450Z,79.71
2019-03-12T18:13:14.715Z,79.98
2019-03-12T18:15:22.865Z,79.85
2019-03-12T18:17:30.659Z,79.07
2019-03-12T18:19:38.348Z,79.45
2019-03-12T18:21:46.042Z,79.51
2019-03-12T18:23:54.700Z,79.46
2019-03-12T18:26:04.123Z,80.29
2019-03-12T18:28:11.790Z,80.27
2019-03-12T18:30:19.724Z,80.23
2019-03-12T18:32:28.305Z,80.52
2019-03-12T18:34:35.961Z,80.38
2019-03-12T18:36:43.551Z,80.36
2019-03-12T18:38:53.082Z,80.52
2019-03-12T18:41:00.721Z,80.17
2019-03-12T18:43:08.384Z,80.33
2019-03-12T18:45:23.595Z,80.41
2019-03-12T18:47:32.471Z,80.24
2019-03-12T18:49:40.054Z,79.96
2019-03-12T18:51:47.745Z,79.38
2019-03-12T18:53:55.340Z,79.35
2019-03-12T18:56:03.567Z,78.63
2019-03-12T18:58:11.887Z,78.57
2019-03-12T19:00:20.684Z,78.29
2019-03-12T19:02:28.349Z,78.43
2019-03-12T19:04:36.090Z,79.04
2019-03-12T19:06:43.756Z,79.53
2019-03-12T19:08:51.457Z,80.00
2019-03-12T19:11:00.488Z,80.24
2019-03-12T19:13:08.420Z,79.80
2019-03-12T19:15:16.642Z,79.82
2019-03-12T19:17:24.463Z,79.79
2019-03-12T19:19:33.436Z,79.63
2019-03-12T19:21:41.272Z,79.80
2019-03-12T19:23:49.020Z,80.17
2019-03-12T19:25:56.765Z,80.43
2019-03-12T19:28:04.699Z,80.50
2019-03-12T19:30:17.963Z,80.80
2019-03-12T19:32:45.428Z,80.87
2019-03-12T19:34:53.222Z,80.83
2019-03-12T19:37:01.283Z,80.90
2019-03-12T19:39:09.530Z,81.07
2019-03-12T19:41:17.469Z,80.81
2019-03-12T19:43:25.272Z,80.92
2019-03-12T19:45:33.066Z,80.98
2019-03-12T19:47:40.663Z,80.94
2019-03-12T19:49:48.379Z,80.91
2019-03-12T19:51:56.055Z,81.04
2019-03-12T19:54:03.726Z,80.41
2019-03-12T19:56:11.355Z,81.11
2019-03-12T19:58:19.020Z,81.06
2019-03-12T20:00:27.454Z,81.24
2019-03-12T20:02:36.343Z,80.77
2019-03-12T20:04:47.409Z,80.18
2019-03-12T20:06:53.961Z,79.67
2019-03-12T20:09:02.053Z,79.63
2019-03-12T20:12:07.922Z,79.53
2019-03-12T20:14:53.634Z,79.69
2019-03-12T20:17:26.094Z,80.55
2019-03-12T20:19:56.091Z,80.66
2019-03-12T20:22:32.352Z,81.29
2019-03-12T20:25:14.920Z,81.83
2019-03-12T20:27:55.410Z,82.03
2019-03-12T20:30:33.690Z,82.53
2019-03-12T20:33:19.428Z,82.50
2019-03-12T20:36:00.028Z,82.60
2019-03-12T20:38:56.384Z,82.68
2019-03-12T20:41:37.509Z,82.76
2019-03-12T20:44:26.286Z,82.83
2019-03-12T20:46:55.556Z,82.29
2019-03-12T20:49:16.098Z,82.21
2019-03-12T20:51:51.311Z,82.78
2019-03-12T20:54:32.347Z,82.76
2019-03-12T20:57:24.249Z,82.64
2019-03-12T21:00:00.609Z,82.29
2019-03-12T21:03:02.960Z,82.71
2019-03-12T21:05:59.239Z,83.00
2019-03-12T21:09:01.915Z,83.01
2019-03-12T21:11:56.757Z,82.98
2019-03-12T21:14:44.003Z,82.83
2019-03-12T21:17:11.490Z,82.53
2019-03-12T21:20:14.272Z,82.37
2019-03-12T21:23:06.356Z,82.49
2019-03-12T21:25:50.825Z,82.37
2019-03-12T21:28:19.510Z,82.47
2019-03-12T21:30:27.711Z,82.93
2019-03-12T21:32:35.553Z,83.13
2019-03-12T21:34:44.046Z,83.28
2019-03-12T21:36:51.810Z,83.61
2019-03-12T21:38:59.545Z,83.51
2019-03-12T21:41:07.706Z,83.35
2019-03-12T21:43:15.435Z,82.97
2019-03-12T21:45:23.346Z,82.49
2019-03-12T21:47:30.978Z,82.15
2019-03-12T21:49:38.722Z,82.29
2019-03-12T21:51:46.472Z,82.25
2019-03-12T21:53:55.740Z,81.26
2019-03-12T21:56:03.360Z,81.27
2019-03-12T21:58:14.167Z,81.80
2019-03-12T22:00:22.540Z,81.71
2019-03-12T22:02:31.253Z,81.20
2019-03-12T22:04:38.918Z,81.27
2019-03-12T22:06:46.623Z,80.88
2019-03-12T22:08:54.492Z,80.83
2019-03-12T22:11:02.160Z,80.66
2019-03-12T22:13:10.860Z,80.21
2019-03-12T22:15:18.519Z,80.26
2019-03-12T22:17:26.272Z,80.95
2019-03-12T22:19:33.885Z,81.04
2019-03-12T22:21:57.978Z,81.22
2019-03-12T22:24:09.278Z,81.32
2019-03-12T22:26:17.204Z,81.27
2019-03-12T22:28:24.784Z,81.12
2019-03-12T22:30:32.492Z,81.34
2019-03-12T22:32:40.154Z,81.19
2019-03-12T22:34:47.837Z,81.39
2019-03-12T22:36:56.495Z,80.71
2019-03-12T22:39:05.054Z,81.03
2019-03-12T22:41:13.092Z,80.29
2019-03-12T22:43:20.842Z,81.18
2019-03-12T22:45:28.586Z,80.91
2019-03-12T22:47:36.280Z,80.80
2019-03-12T22:49:43.974Z,80.49
2019-03-12T22:51:51.602Z,81.11
2019-03-12T22:54:00.487Z,81.05
2019-03-12T22:56:08.083Z,81.07
2019-03-12T22:58:15.986Z,80.98
2019-03-12T23:00:42.837Z,80.14
2019-03-12T23:03:09.185Z,80.42
2019-03-12T23:05:35.199Z,80.16
2019-03-12T23:08:02.101Z,80.91
2019-03-12T23:10:14.878Z,80.71
2019-03-12T23:12:24.398Z,81.00
2019-03-12T23:14:32.986Z,80.98
2019-03-12T23:16:41.056Z,80.97
2019-03-12T23:18:48.913Z,80.33
2019-03-12T23:20:56.607Z,80.55
2019-03-12T23:23:04.406Z,80.60
2019-03-12T23:25:12.627Z,80.25
2019-03-12T23:27:21.956Z,80.44
2019-03-12T23:29:29.816Z,80.44
2019-03-12T23:31:37.655Z,80.53
2019-03-12T23:33:45.612Z,80.06
2019-03-12T23:35:53.578Z,80.03
2019-03-12T23:38:01.332Z,80.00
2019-03-12T23:40:18.908Z,79.93
2019-03-12T23:42:27.986Z,79.93
2019-03-12T23:44:35.886Z,80.72
2019-03-12T23:46:43.649Z,80.52
2019-03-12T23:48:51.399Z,80.94
2019-03-12T23:50:59.072Z,80.87
2019-03-12T23:53:07.303Z,80.64
2019-03-12T23:55:18.716Z,80.79
2019-03-12T23:57:26.453Z,81.02
2019-03-12T23:59:34.384Z,80.55
